AAL303 KORD-KMIA
Flight info
| Callsign | AAL303 |
|---|---|
| Flight time | 2h 32m |
| Altitude | 35000 |
| Route | DENNT DARCY DREGS DUMGE SCOTO SWAPP LUCKK HONID FROGZ5 |
| Aircraft | A21N/M-VGDW/C |
Departure
| Time | 2026-05-06 17:52 |
|---|---|
| Airport | Chicago O'Hare International Airport (KORD) |
Arrival
| Time | 2026-05-06 20:24 |
|---|---|
| Airport | Miami International Airport (KMIA) |
| Time | Latitude | Longitude | Altitude | Speed | Heading |
|---|---|---|---|---|---|
| 2026-05-06 17:37 | 41.97306 | -87.89953 | 674 ft | 0 kts | 245° |
| 2026-05-06 17:43 | 41.97310 | -87.89942 | 674 ft | 3 kts | 244° |
| 2026-05-06 17:43 | 41.97320 | -87.89919 | 670 ft | 3 kts | 228° |
| 2026-05-06 17:43 | 41.97334 | -87.89903 | 671 ft | 3 kts | 200° |
| 2026-05-06 17:43 | 41.97351 | -87.89900 | 674 ft | 3 kts | 159° |
| 2026-05-06 17:44 | 41.97361 | -87.89907 | 671 ft | 2 kts | 144° |
| 2026-05-06 17:44 | 41.97375 | -87.89920 | 673 ft | 2 kts | 144° |
| 2026-05-06 17:44 | 41.97379 | -87.89924 | 672 ft | 0 kts | 144° |
| 2026-05-06 17:47 | 41.97352 | -87.89898 | 670 ft | 11 kts | 144° |
| 2026-05-06 17:47 | 41.97281 | -87.89831 | 674 ft | 14 kts | 144° |
| 2026-05-06 17:47 | 41.97257 | -87.89794 | 674 ft | 4 kts | 101° |
| 2026-05-06 17:47 | 41.97256 | -87.89741 | 674 ft | 7 kts | 97° |
| 2026-05-06 17:48 | 41.97219 | -87.89690 | 674 ft | 9 kts | 150° |
| 2026-05-06 17:48 | 41.97160 | -87.89639 | 673 ft | 11 kts | 145° |
| 2026-05-06 17:48 | 41.97099 | -87.89561 | 674 ft | 13 kts | 121° |
| 2026-05-06 17:48 | 41.97061 | -87.89438 | 673 ft | 15 kts | 116° |
| 2026-05-06 17:49 | 41.97042 | -87.89292 | 674 ft | 17 kts | 90° |
| 2026-05-06 17:49 | 41.97044 | -87.89127 | 674 ft | 18 kts | 89° |
| 2026-05-06 17:49 | 41.97046 | -87.88951 | 674 ft | 20 kts | 90° |
| 2026-05-06 17:49 | 41.97043 | -87.88756 | 674 ft | 21 kts | 91° |
| 2026-05-06 17:50 | 41.97043 | -87.88553 | 674 ft | 23 kts | 87° |
| 2026-05-06 17:50 | 41.97044 | -87.88334 | 674 ft | 24 kts | 90° |
| 2026-05-06 17:50 | 41.97044 | -87.88105 | 675 ft | 19 kts | 97° |
| 2026-05-06 17:50 | 41.96967 | -87.88015 | 677 ft | 12 kts | 199° |
| 2026-05-06 17:51 | 41.96937 | -87.88042 | 675 ft | 6 kts | 218° |
| 2026-05-06 17:51 | 41.96819 | -87.88182 | 675 ft | 57 kts | 222° |
| 2026-05-06 17:51 | 41.96342 | -87.88752 | 677 ft | 124 kts | 223° |
| 2026-05-06 17:51 | 41.95576 | -87.89634 | 830 ft | 154 kts | 221° |
| 2026-05-06 17:52 | 41.94737 | -87.90500 | 1548 ft | 151 kts | 222° |
| 2026-05-06 17:52 | 41.93890 | -87.91367 | 2173 ft | 162 kts | 214° |
| 2026-05-06 17:52 | 41.92677 | -87.91618 | 2503 ft | 197 kts | 174° |
| 2026-05-06 17:52 | 41.91282 | -87.91077 | 2998 ft | 227 kts | 166° |
| 2026-05-06 17:53 | 41.89665 | -87.90422 | 3533 ft | 255 kts | 167° |
| 2026-05-06 17:53 | 41.87921 | -87.89740 | 4427 ft | 264 kts | 167° |
| 2026-05-06 17:53 | 41.86146 | -87.89057 | 5416 ft | 267 kts | 167° |
| 2026-05-06 17:53 | 41.84338 | -87.88367 | 6419 ft | 272 kts | 167° |
| 2026-05-06 17:54 | 41.82520 | -87.87678 | 7318 ft | 276 kts | 167° |
| 2026-05-06 17:54 | 41.80651 | -87.86970 | 8264 ft | 281 kts | 168° |
| 2026-05-06 17:54 | 41.78752 | -87.86256 | 9213 ft | 285 kts | 168° |
| 2026-05-06 17:54 | 41.76825 | -87.85534 | 10153 ft | 291 kts | 169° |
| 2026-05-06 17:55 | 41.74806 | -87.84782 | 10609 ft | 313 kts | 169° |
| 2026-05-06 17:55 | 41.72629 | -87.83971 | 10996 ft | 335 kts | 169° |
| 2026-05-06 17:55 | 41.70348 | -87.83115 | 11693 ft | 344 kts | 169° |
| 2026-05-06 17:55 | 41.68051 | -87.82251 | 12523 ft | 349 kts | 170° |
| 2026-05-06 17:56 | 41.65701 | -87.81367 | 13391 ft | 352 kts | 171° |
| 2026-05-06 17:56 | 41.63324 | -87.80477 | 14180 ft | 357 kts | 171° |
| 2026-05-06 17:56 | 41.60912 | -87.79577 | 14926 ft | 360 kts | 171° |
| 2026-05-06 17:56 | 41.58484 | -87.78670 | 15665 ft | 364 kts | 172° |
| 2026-05-06 17:57 | 41.56026 | -87.77752 | 16423 ft | 367 kts | 172° |
| 2026-05-06 17:57 | 41.53582 | -87.76840 | 17170 ft | 370 kts | 172° |
| 2026-05-06 17:57 | 41.51088 | -87.75912 | 17918 ft | 373 kts | 173° |
| 2026-05-06 17:57 | 41.48573 | -87.74978 | 18595 ft | 376 kts | 173° |
| 2026-05-06 17:58 | 41.46038 | -87.74035 | 19230 ft | 379 kts | 173° |
| 2026-05-06 17:58 | 41.43486 | -87.73088 | 19854 ft | 380 kts | 174° |
| 2026-05-06 17:58 | 41.40911 | -87.72489 | 20453 ft | 372 kts | 185° |
| 2026-05-06 17:58 | 41.38330 | -87.72433 | 21051 ft | 370 kts | 189° |
| 2026-05-06 17:59 | 41.35742 | -87.72473 | 21631 ft | 373 kts | 189° |
| 2026-05-06 17:59 | 41.33138 | -87.72514 | 22198 ft | 376 kts | 189° |
| 2026-05-06 17:59 | 41.30507 | -87.72543 | 22756 ft | 379 kts | 189° |
| 2026-05-06 17:59 | 41.27894 | -87.72565 | 23283 ft | 382 kts | 189° |
| 2026-05-06 18:00 | 41.25215 | -87.72581 | 23773 ft | 386 kts | 190° |
| 2026-05-06 18:00 | 41.22519 | -87.72594 | 24215 ft | 389 kts | 190° |
| 2026-05-06 18:00 | 41.19796 | -87.72537 | 24671 ft | 396 kts | 187° |
| 2026-05-06 18:00 | 41.17029 | -87.72210 | 25122 ft | 401 kts | 186° |
| 2026-05-06 18:01 | 41.14244 | -87.71830 | 25556 ft | 403 kts | 186° |
| 2026-05-06 18:01 | 41.11436 | -87.71438 | 25998 ft | 405 kts | 187° |
| 2026-05-06 18:01 | 41.08657 | -87.71052 | 26421 ft | 406 kts | 187° |
| 2026-05-06 18:01 | 41.05841 | -87.70673 | 26846 ft | 408 kts | 188° |
| 2026-05-06 18:02 | 41.02998 | -87.70289 | 27266 ft | 409 kts | 188° |
| 2026-05-06 18:02 | 41.00155 | -87.69906 | 27672 ft | 410 kts | 189° |
| 2026-05-06 18:02 | 40.97308 | -87.69527 | 28060 ft | 412 kts | 189° |
| 2026-05-06 18:02 | 40.94447 | -87.69141 | 28453 ft | 413 kts | 190° |
| 2026-05-06 18:03 | 40.91575 | -87.68753 | 28805 ft | 415 kts | 190° |
| 2026-05-06 18:03 | 40.88693 | -87.68368 | 29174 ft | 416 kts | 191° |
| 2026-05-06 18:03 | 40.85806 | -87.67981 | 29547 ft | 418 kts | 191° |
| 2026-05-06 18:03 | 40.82914 | -87.67597 | 29889 ft | 419 kts | 191° |
| 2026-05-06 18:04 | 40.80001 | -87.67206 | 30239 ft | 420 kts | 191° |
| 2026-05-06 18:04 | 40.77099 | -87.66813 | 30603 ft | 419 kts | 192° |
| 2026-05-06 18:04 | 40.74202 | -87.66423 | 30956 ft | 418 kts | 192° |
| 2026-05-06 18:04 | 40.71348 | -87.66040 | 31303 ft | 416 kts | 192° |
| 2026-05-06 18:05 | 40.68472 | -87.65656 | 31653 ft | 416 kts | 192° |
| 2026-05-06 18:05 | 40.65591 | -87.65271 | 32014 ft | 415 kts | 193° |
| 2026-05-06 18:05 | 40.62719 | -87.64886 | 32361 ft | 414 kts | 193° |
| 2026-05-06 18:05 | 40.59851 | -87.64504 | 32690 ft | 413 kts | 193° |
| 2026-05-06 18:06 | 40.56990 | -87.64126 | 33001 ft | 412 kts | 193° |
| 2026-05-06 18:06 | 40.54133 | -87.63751 | 33307 ft | 412 kts | 193° |
| 2026-05-06 18:06 | 40.51311 | -87.63381 | 33618 ft | 411 kts | 193° |
| 2026-05-06 18:06 | 40.48469 | -87.63006 | 33917 ft | 410 kts | 194° |
| 2026-05-06 18:07 | 40.45633 | -87.62633 | 34179 ft | 409 kts | 194° |
| 2026-05-06 18:07 | 40.42785 | -87.62258 | 34387 ft | 409 kts | 193° |
| 2026-05-06 18:07 | 40.39953 | -87.61880 | 34594 ft | 410 kts | 193° |
| 2026-05-06 18:07 | 40.37115 | -87.61503 | 34783 ft | 410 kts | 193° |
| 2026-05-06 18:08 | 40.34278 | -87.61123 | 34961 ft | 412 kts | 193° |
| 2026-05-06 18:08 | 40.31385 | -87.60459 | 35079 ft | 434 kts | 184° |
| 2026-05-06 18:08 | 40.28465 | -87.58998 | 35095 ft | 460 kts | 173° |
| 2026-05-06 18:08 | 40.25619 | -87.57136 | 35082 ft | 464 kts | 171° |
| 2026-05-06 18:09 | 40.19880 | -87.53318 | 35067 ft | 461 kts | 172° |
| 2026-05-06 18:09 | 40.14132 | -87.49640 | 35064 ft | 459 kts | 173° |
| 2026-05-06 18:10 | 40.08368 | -87.46003 | 35053 ft | 458 kts | 173° |
| 2026-05-06 18:10 | 40.02620 | -87.42375 | 35044 ft | 458 kts | 173° |
| 2026-05-06 18:11 | 39.96913 | -87.38718 | 35036 ft | 462 kts | 172° |
| 2026-05-06 18:11 | 39.91185 | -87.34857 | 35030 ft | 462 kts | 171° |
| 2026-05-06 18:12 | 39.85466 | -87.31005 | 35048 ft | 463 kts | 171° |
| 2026-05-06 18:12 | 39.79777 | -87.27180 | 35036 ft | 463 kts | 172° |
| 2026-05-06 18:13 | 39.74042 | -87.23347 | 35032 ft | 462 kts | 172° |
| 2026-05-06 18:13 | 39.68312 | -87.19523 | 35035 ft | 462 kts | 172° |
| 2026-05-06 18:14 | 39.62577 | -87.15702 | 35038 ft | 462 kts | 172° |
| 2026-05-06 18:14 | 39.56892 | -87.11917 | 35033 ft | 463 kts | 172° |
| 2026-05-06 18:15 | 39.51153 | -87.08099 | 35036 ft | 463 kts | 172° |
| 2026-05-06 18:15 | 39.45462 | -87.04325 | 35040 ft | 463 kts | 172° |
| 2026-05-06 18:16 | 39.39721 | -87.00532 | 35044 ft | 463 kts | 172° |
| 2026-05-06 18:16 | 39.34009 | -86.96765 | 35032 ft | 463 kts | 172° |
| 2026-05-06 18:17 | 39.28260 | -86.92971 | 35026 ft | 464 kts | 171° |
| 2026-05-06 18:17 | 39.22517 | -86.89189 | 35023 ft | 463 kts | 171° |
| 2026-05-06 18:18 | 39.16773 | -86.85410 | 35020 ft | 463 kts | 171° |
| 2026-05-06 18:18 | 39.11041 | -86.81528 | 35023 ft | 466 kts | 170° |
| 2026-05-06 18:19 | 39.05302 | -86.77608 | 35026 ft | 465 kts | 170° |
| 2026-05-06 18:19 | 38.99604 | -86.73746 | 35027 ft | 465 kts | 170° |
| 2026-05-06 18:20 | 38.93869 | -86.69867 | 35030 ft | 465 kts | 170° |
| 2026-05-06 18:20 | 38.88138 | -86.66000 | 35027 ft | 465 kts | 171° |
| 2026-05-06 18:21 | 38.82398 | -86.62127 | 35018 ft | 465 kts | 170° |
| 2026-05-06 18:21 | 38.76695 | -86.58293 | 35018 ft | 465 kts | 170° |
| 2026-05-06 18:22 | 38.70964 | -86.54440 | 35030 ft | 465 kts | 171° |
| 2026-05-06 18:22 | 38.65227 | -86.50600 | 35017 ft | 464 kts | 171° |
| 2026-05-06 18:23 | 38.59495 | -86.46768 | 35025 ft | 464 kts | 171° |
| 2026-05-06 18:23 | 38.53763 | -86.42943 | 35029 ft | 464 kts | 171° |
| 2026-05-06 18:24 | 38.48065 | -86.39148 | 35034 ft | 464 kts | 171° |
| 2026-05-06 18:24 | 38.42330 | -86.35314 | 35026 ft | 465 kts | 170° |
| 2026-05-06 18:25 | 38.36627 | -86.31518 | 35019 ft | 464 kts | 171° |
| 2026-05-06 18:25 | 38.30892 | -86.27722 | 35022 ft | 464 kts | 170° |
| 2026-05-06 18:26 | 38.26116 | -86.24558 | 35018 ft | 464 kts | 170° |
| 2026-05-06 18:26 | 38.20387 | -86.20769 | 35011 ft | 463 kts | 170° |
| 2026-05-06 18:27 | 38.14663 | -86.16993 | 35005 ft | 463 kts | 170° |
| 2026-05-06 18:27 | 38.08929 | -86.13210 | 35000 ft | 464 kts | 170° |
| 2026-05-06 18:28 | 38.03233 | -86.09468 | 34990 ft | 464 kts | 170° |
| 2026-05-06 18:28 | 37.97489 | -86.05697 | 34986 ft | 464 kts | 170° |
| 2026-05-06 18:29 | 37.91744 | -86.01938 | 34981 ft | 464 kts | 170° |
| 2026-05-06 18:29 | 37.85989 | -85.98177 | 34982 ft | 465 kts | 169° |
| 2026-05-06 18:30 | 37.80267 | -85.94438 | 34980 ft | 466 kts | 169° |
| 2026-05-06 18:30 | 37.74496 | -85.90679 | 34980 ft | 466 kts | 169° |
| 2026-05-06 18:31 | 37.68711 | -85.86913 | 34984 ft | 467 kts | 169° |
| 2026-05-06 18:31 | 37.62963 | -85.83176 | 34984 ft | 467 kts | 169° |
| 2026-05-06 18:32 | 37.57168 | -85.79417 | 34997 ft | 468 kts | 169° |
| 2026-05-06 18:32 | 37.51404 | -85.75694 | 34983 ft | 468 kts | 169° |
| 2026-05-06 18:33 | 37.45605 | -85.71947 | 34977 ft | 468 kts | 169° |
| 2026-05-06 18:33 | 37.39786 | -85.68204 | 34987 ft | 469 kts | 169° |
| 2026-05-06 18:34 | 37.34006 | -85.64470 | 34994 ft | 470 kts | 169° |
| 2026-05-06 18:34 | 37.28176 | -85.60719 | 34998 ft | 470 kts | 169° |
| 2026-05-06 18:35 | 37.22353 | -85.56983 | 34997 ft | 469 kts | 169° |
| 2026-05-06 18:35 | 37.16527 | -85.53250 | 35004 ft | 469 kts | 169° |
| 2026-05-06 18:36 | 37.10710 | -85.49536 | 34990 ft | 469 kts | 169° |
| 2026-05-06 18:36 | 37.04935 | -85.45845 | 34980 ft | 469 kts | 168° |
| 2026-05-06 18:37 | 36.99126 | -85.42142 | 34972 ft | 468 kts | 168° |
| 2026-05-06 18:37 | 36.93323 | -85.38455 | 34976 ft | 468 kts | 168° |
| 2026-05-06 18:38 | 36.87517 | -85.34776 | 34972 ft | 467 kts | 168° |
| 2026-05-06 18:38 | 36.81730 | -85.31102 | 34967 ft | 467 kts | 168° |
| 2026-05-06 18:39 | 36.75971 | -85.27455 | 34971 ft | 467 kts | 168° |
| 2026-05-06 18:40 | 36.67274 | -85.21966 | 34969 ft | 467 kts | 168° |
| 2026-05-06 18:40 | 36.61441 | -85.18502 | 34952 ft | 454 kts | 175° |
| 2026-05-06 18:40 | 36.58488 | -85.17531 | 34956 ft | 430 kts | 186° |
| 2026-05-06 18:41 | 36.55550 | -85.16993 | 34954 ft | 425 kts | 188° |
| 2026-05-06 18:41 | 36.49719 | -85.16021 | 34949 ft | 426 kts | 187° |
| 2026-05-06 18:42 | 36.43827 | -85.14938 | 34943 ft | 429 kts | 187° |
| 2026-05-06 18:42 | 36.37917 | -85.13829 | 34932 ft | 429 kts | 186° |
| 2026-05-06 18:43 | 36.32017 | -85.12715 | 34940 ft | 429 kts | 187° |
| 2026-05-06 18:43 | 36.26105 | -85.11606 | 34947 ft | 429 kts | 187° |
| 2026-05-06 18:44 | 36.20242 | -85.10507 | 34957 ft | 429 kts | 186° |
| 2026-05-06 18:44 | 36.14345 | -85.09407 | 34970 ft | 428 kts | 186° |
| 2026-05-06 18:45 | 36.08452 | -85.08304 | 34982 ft | 429 kts | 186° |
| 2026-05-06 18:45 | 36.02530 | -85.07201 | 34998 ft | 429 kts | 186° |
| 2026-05-06 18:46 | 35.96627 | -85.06104 | 34994 ft | 430 kts | 186° |
| 2026-05-06 18:46 | 35.90742 | -85.05013 | 34995 ft | 431 kts | 185° |
| 2026-05-06 18:47 | 35.84804 | -85.03908 | 34990 ft | 431 kts | 185° |
| 2026-05-06 18:47 | 35.78852 | -85.02796 | 34978 ft | 432 kts | 185° |
| 2026-05-06 18:48 | 35.72905 | -85.01699 | 34967 ft | 433 kts | 184° |
| 2026-05-06 18:48 | 35.66938 | -85.00604 | 34954 ft | 434 kts | 184° |
| 2026-05-06 18:49 | 35.60984 | -84.99505 | 34939 ft | 435 kts | 184° |
| 2026-05-06 18:49 | 35.54988 | -84.98399 | 34932 ft | 436 kts | 184° |
| 2026-05-06 18:50 | 35.48976 | -84.97285 | 34949 ft | 437 kts | 184° |
| 2026-05-06 18:50 | 35.42959 | -84.96183 | 34962 ft | 437 kts | 184° |
| 2026-05-06 18:51 | 35.36963 | -84.95081 | 34980 ft | 438 kts | 183° |
| 2026-05-06 18:51 | 35.30924 | -84.93972 | 34992 ft | 439 kts | 183° |
| 2026-05-06 18:52 | 35.24862 | -84.92870 | 35000 ft | 440 kts | 183° |
| 2026-05-06 18:52 | 35.18788 | -84.91761 | 34998 ft | 441 kts | 183° |
| 2026-05-06 18:53 | 35.12742 | -84.90646 | 35000 ft | 443 kts | 183° |
| 2026-05-06 18:53 | 35.06632 | -84.89537 | 34992 ft | 444 kts | 183° |
| 2026-05-06 18:54 | 35.00504 | -84.88434 | 34988 ft | 445 kts | 183° |
| 2026-05-06 18:54 | 34.94393 | -84.87329 | 34993 ft | 446 kts | 184° |
| 2026-05-06 18:55 | 34.88264 | -84.86217 | 34998 ft | 447 kts | 183° |
| 2026-05-06 18:55 | 34.82111 | -84.85100 | 35003 ft | 447 kts | 184° |
| 2026-05-06 18:56 | 34.75944 | -84.83987 | 35006 ft | 448 kts | 184° |
| 2026-05-06 18:56 | 34.69771 | -84.82864 | 35008 ft | 448 kts | 184° |
| 2026-05-06 18:57 | 34.63601 | -84.81754 | 35005 ft | 448 kts | 184° |
| 2026-05-06 18:57 | 34.57424 | -84.80642 | 35003 ft | 448 kts | 184° |
| 2026-05-06 18:58 | 34.51274 | -84.79533 | 34999 ft | 448 kts | 184° |
| 2026-05-06 18:58 | 34.45093 | -84.78427 | 34989 ft | 448 kts | 184° |
| 2026-05-06 18:59 | 34.38951 | -84.77337 | 34989 ft | 448 kts | 184° |
| 2026-05-06 18:59 | 34.32783 | -84.76238 | 34991 ft | 449 kts | 183° |
| 2026-05-06 19:00 | 34.26576 | -84.75128 | 35013 ft | 450 kts | 183° |
| 2026-05-06 19:00 | 34.20413 | -84.74026 | 35021 ft | 450 kts | 183° |
| 2026-05-06 19:01 | 34.14201 | -84.72918 | 35028 ft | 451 kts | 183° |
| 2026-05-06 19:01 | 34.07977 | -84.71805 | 35021 ft | 451 kts | 183° |
| 2026-05-06 19:02 | 34.01790 | -84.70704 | 35037 ft | 452 kts | 183° |
| 2026-05-06 19:02 | 33.95566 | -84.69603 | 35034 ft | 452 kts | 183° |
| 2026-05-06 19:03 | 33.89357 | -84.68505 | 35024 ft | 453 kts | 182° |
| 2026-05-06 19:03 | 33.83116 | -84.67399 | 35009 ft | 453 kts | 182° |
| 2026-05-06 19:04 | 33.76859 | -84.66294 | 35009 ft | 454 kts | 183° |
| 2026-05-06 19:04 | 33.70589 | -84.65196 | 35009 ft | 454 kts | 183° |
| 2026-05-06 19:05 | 33.64370 | -84.64097 | 35012 ft | 455 kts | 183° |
| 2026-05-06 19:05 | 33.58089 | -84.62988 | 35038 ft | 455 kts | 183° |
| 2026-05-06 19:06 | 33.51804 | -84.61887 | 35040 ft | 455 kts | 183° |
| 2026-05-06 19:06 | 33.45586 | -84.60801 | 35043 ft | 456 kts | 183° |
| 2026-05-06 19:07 | 33.39290 | -84.59698 | 35048 ft | 456 kts | 183° |
| 2026-05-06 19:07 | 33.33009 | -84.58602 | 35048 ft | 456 kts | 183° |
| 2026-05-06 19:08 | 33.26740 | -84.57509 | 35045 ft | 457 kts | 183° |
| 2026-05-06 19:08 | 33.20459 | -84.56415 | 35043 ft | 457 kts | 183° |
| 2026-05-06 19:09 | 33.14169 | -84.55318 | 35039 ft | 457 kts | 182° |
| 2026-05-06 19:09 | 33.07874 | -84.54223 | 35049 ft | 457 kts | 182° |
| 2026-05-06 19:10 | 33.01581 | -84.53136 | 35054 ft | 457 kts | 182° |
| 2026-05-06 19:10 | 32.95285 | -84.52049 | 35057 ft | 457 kts | 182° |
| 2026-05-06 19:11 | 32.88987 | -84.50967 | 35056 ft | 457 kts | 182° |
| 2026-05-06 19:11 | 32.82692 | -84.49877 | 35053 ft | 457 kts | 182° |
| 2026-05-06 19:12 | 32.76421 | -84.48793 | 35048 ft | 458 kts | 182° |
| 2026-05-06 19:12 | 32.70114 | -84.47708 | 35047 ft | 458 kts | 182° |
| 2026-05-06 19:13 | 32.63796 | -84.46623 | 35037 ft | 458 kts | 182° |
| 2026-05-06 19:13 | 32.57464 | -84.45537 | 35039 ft | 459 kts | 182° |
| 2026-05-06 19:14 | 32.51129 | -84.44450 | 35037 ft | 460 kts | 182° |
| 2026-05-06 19:14 | 32.44812 | -84.43369 | 35029 ft | 461 kts | 182° |
| 2026-05-06 19:15 | 32.38447 | -84.42277 | 35034 ft | 462 kts | 182° |
| 2026-05-06 19:15 | 32.32077 | -84.41190 | 35036 ft | 463 kts | 183° |
| 2026-05-06 19:16 | 32.26808 | -84.40739 | 35042 ft | 452 kts | 190° |
| 2026-05-06 19:16 | 32.20517 | -84.40631 | 35043 ft | 452 kts | 191° |
| 2026-05-06 19:17 | 32.14218 | -84.40516 | 35043 ft | 452 kts | 190° |
| 2026-05-06 19:17 | 32.07948 | -84.40394 | 35046 ft | 453 kts | 190° |
| 2026-05-06 19:18 | 32.01634 | -84.40268 | 35051 ft | 454 kts | 190° |
| 2026-05-06 19:18 | 31.95293 | -84.40143 | 35049 ft | 455 kts | 190° |
| 2026-05-06 19:19 | 31.88966 | -84.40017 | 35056 ft | 455 kts | 190° |
| 2026-05-06 19:19 | 31.82672 | -84.39892 | 35060 ft | 456 kts | 190° |
| 2026-05-06 19:20 | 31.76321 | -84.39766 | 35077 ft | 456 kts | 190° |
| 2026-05-06 19:20 | 31.69973 | -84.39640 | 35072 ft | 457 kts | 190° |
| 2026-05-06 19:21 | 31.63569 | -84.39270 | 35077 ft | 470 kts | 181° |
| 2026-05-06 19:21 | 31.57114 | -84.37646 | 35088 ft | 475 kts | 177° |
| 2026-05-06 19:22 | 31.50688 | -84.35968 | 35086 ft | 474 kts | 178° |
| 2026-05-06 19:22 | 31.44238 | -84.34332 | 35084 ft | 474 kts | 178° |
| 2026-05-06 19:23 | 31.37820 | -84.32709 | 35084 ft | 474 kts | 178° |
| 2026-05-06 19:23 | 31.31369 | -84.31096 | 35077 ft | 474 kts | 178° |
| 2026-05-06 19:24 | 31.24911 | -84.29475 | 35075 ft | 474 kts | 178° |
| 2026-05-06 19:24 | 31.18441 | -84.27847 | 35076 ft | 475 kts | 177° |
| 2026-05-06 19:25 | 31.11972 | -84.26223 | 35073 ft | 475 kts | 177° |
| 2026-05-06 19:25 | 31.05557 | -84.24613 | 35070 ft | 474 kts | 177° |
| 2026-05-06 19:26 | 30.99094 | -84.22995 | 35074 ft | 474 kts | 177° |
| 2026-05-06 19:26 | 30.92627 | -84.21378 | 35074 ft | 474 kts | 177° |
| 2026-05-06 19:27 | 30.86170 | -84.19764 | 35079 ft | 474 kts | 177° |
| 2026-05-06 19:27 | 30.79761 | -84.18163 | 35080 ft | 474 kts | 177° |
| 2026-05-06 19:28 | 30.73301 | -84.16554 | 35076 ft | 474 kts | 177° |
| 2026-05-06 19:28 | 30.66849 | -84.14951 | 35076 ft | 474 kts | 177° |
| 2026-05-06 19:29 | 30.60395 | -84.13347 | 35075 ft | 474 kts | 177° |
| 2026-05-06 19:29 | 30.53989 | -84.11759 | 35074 ft | 473 kts | 177° |
| 2026-05-06 19:30 | 30.47540 | -84.10160 | 35077 ft | 473 kts | 176° |
| 2026-05-06 19:30 | 30.41116 | -84.08569 | 35075 ft | 473 kts | 176° |
| 2026-05-06 19:31 | 30.34797 | -84.06041 | 35078 ft | 493 kts | 159° |
| 2026-05-06 19:31 | 30.25860 | -84.00024 | 35081 ft | 494 kts | 156° |
| 2026-05-06 19:32 | 30.19934 | -83.96075 | 35085 ft | 492 kts | 157° |
| 2026-05-06 19:32 | 30.13992 | -83.92144 | 35089 ft | 492 kts | 157° |
| 2026-05-06 19:33 | 30.08042 | -83.88211 | 35092 ft | 492 kts | 157° |
| 2026-05-06 19:33 | 30.02094 | -83.84284 | 35098 ft | 492 kts | 157° |
| 2026-05-06 19:34 | 29.96183 | -83.80386 | 35098 ft | 492 kts | 157° |
| 2026-05-06 19:34 | 29.90233 | -83.76471 | 35097 ft | 492 kts | 156° |
| 2026-05-06 19:35 | 29.84292 | -83.72565 | 35095 ft | 492 kts | 156° |
| 2026-05-06 19:35 | 29.78344 | -83.68658 | 35090 ft | 492 kts | 156° |
| 2026-05-06 19:36 | 29.72424 | -83.64775 | 35089 ft | 492 kts | 156° |
| 2026-05-06 19:36 | 29.66476 | -83.60878 | 35085 ft | 491 kts | 156° |
| 2026-05-06 19:37 | 29.60525 | -83.56991 | 35089 ft | 491 kts | 156° |
| 2026-05-06 19:37 | 29.54583 | -83.53112 | 35088 ft | 491 kts | 156° |
| 2026-05-06 19:38 | 29.48636 | -83.49235 | 35086 ft | 491 kts | 156° |
| 2026-05-06 19:38 | 29.42727 | -83.45390 | 35086 ft | 491 kts | 156° |
| 2026-05-06 19:39 | 29.36782 | -83.41519 | 35085 ft | 491 kts | 156° |
| 2026-05-06 19:39 | 29.30837 | -83.37654 | 35084 ft | 490 kts | 156° |
| 2026-05-06 19:40 | 29.24897 | -83.33906 | 35082 ft | 487 kts | 161° |
| 2026-05-06 19:40 | 29.18705 | -83.30733 | 35084 ft | 487 kts | 162° |
| 2026-05-06 19:41 | 29.12496 | -83.27595 | 35084 ft | 487 kts | 162° |
| 2026-05-06 19:41 | 29.06306 | -83.24444 | 35079 ft | 487 kts | 162° |
| 2026-05-06 19:42 | 29.00106 | -83.21301 | 35083 ft | 487 kts | 162° |
| 2026-05-06 19:42 | 28.93947 | -83.18188 | 35083 ft | 486 kts | 162° |
| 2026-05-06 19:43 | 28.87744 | -83.15079 | 35082 ft | 486 kts | 162° |
| 2026-05-06 19:43 | 28.81560 | -83.11969 | 35078 ft | 486 kts | 162° |
| 2026-05-06 19:44 | 28.75373 | -83.08847 | 35081 ft | 486 kts | 162° |
| 2026-05-06 19:44 | 28.69183 | -83.05736 | 35076 ft | 485 kts | 162° |
| 2026-05-06 19:45 | 28.63034 | -83.02650 | 35068 ft | 485 kts | 162° |
| 2026-05-06 19:45 | 28.56845 | -82.99546 | 35081 ft | 485 kts | 162° |
| 2026-05-06 19:46 | 28.50665 | -82.96448 | 35079 ft | 485 kts | 162° |
| 2026-05-06 19:46 | 28.44491 | -82.93359 | 35081 ft | 485 kts | 162° |
| 2026-05-06 19:47 | 28.38341 | -82.90284 | 35074 ft | 485 kts | 162° |
| 2026-05-06 19:47 | 28.32157 | -82.87203 | 35077 ft | 485 kts | 162° |
| 2026-05-06 19:48 | 28.25962 | -82.84122 | 35077 ft | 485 kts | 162° |
| 2026-05-06 19:48 | 28.19787 | -82.81050 | 35074 ft | 484 kts | 161° |
| 2026-05-06 19:49 | 28.13647 | -82.77990 | 35077 ft | 484 kts | 161° |
| 2026-05-06 19:49 | 28.07465 | -82.74922 | 35077 ft | 484 kts | 161° |
| 2026-05-06 19:50 | 28.01274 | -82.71970 | 35072 ft | 479 kts | 167° |
| 2026-05-06 19:50 | 27.94860 | -82.70436 | 35084 ft | 471 kts | 176° |
| 2026-05-06 19:51 | 27.88385 | -82.69213 | 35087 ft | 471 kts | 176° |
| 2026-05-06 19:51 | 27.81916 | -82.67943 | 35069 ft | 471 kts | 176° |
| 2026-05-06 19:52 | 27.75463 | -82.66666 | 35066 ft | 471 kts | 176° |
| 2026-05-06 19:52 | 27.69040 | -82.65406 | 35070 ft | 471 kts | 176° |
| 2026-05-06 19:53 | 27.62569 | -82.64131 | 35070 ft | 471 kts | 176° |
| 2026-05-06 19:53 | 27.56111 | -82.62879 | 35086 ft | 470 kts | 176° |
| 2026-05-06 19:54 | 27.49686 | -82.61310 | 35091 ft | 474 kts | 171° |
| 2026-05-06 19:54 | 27.43336 | -82.59428 | 35088 ft | 474 kts | 171° |
| 2026-05-06 19:55 | 27.36969 | -82.57557 | 35089 ft | 474 kts | 171° |
| 2026-05-06 19:55 | 27.30560 | -82.55676 | 35089 ft | 474 kts | 171° |
| 2026-05-06 19:56 | 27.24171 | -82.53800 | 35089 ft | 474 kts | 171° |
| 2026-05-06 19:56 | 27.17824 | -82.51947 | 35080 ft | 474 kts | 171° |
| 2026-05-06 19:57 | 27.11418 | -82.50075 | 35078 ft | 474 kts | 171° |
| 2026-05-06 19:57 | 27.05045 | -82.48210 | 35077 ft | 474 kts | 171° |
| 2026-05-06 19:58 | 26.98668 | -82.46349 | 35076 ft | 473 kts | 171° |
| 2026-05-06 19:58 | 26.92387 | -82.44221 | 35072 ft | 481 kts | 160° |
| 2026-05-06 19:59 | 26.89465 | -82.42333 | 35075 ft | 488 kts | 147° |
| 2026-05-06 19:59 | 26.86825 | -82.39922 | 35082 ft | 491 kts | 142° |
| 2026-05-06 19:59 | 26.81683 | -82.34877 | 35080 ft | 490 kts | 142° |
| 2026-05-06 20:00 | 26.76516 | -82.29886 | 35074 ft | 489 kts | 142° |
| 2026-05-06 20:00 | 26.71344 | -82.24938 | 35078 ft | 489 kts | 142° |
| 2026-05-06 20:01 | 26.66230 | -82.20048 | 34616 ft | 486 kts | 142° |
| 2026-05-06 20:01 | 26.63622 | -82.17561 | 34041 ft | 487 kts | 142° |
| 2026-05-06 20:01 | 26.61076 | -82.15134 | 33342 ft | 488 kts | 142° |
| 2026-05-06 20:02 | 26.58492 | -82.12669 | 32702 ft | 487 kts | 142° |
| 2026-05-06 20:02 | 26.55914 | -82.10205 | 32058 ft | 487 kts | 142° |
| 2026-05-06 20:02 | 26.53361 | -82.07767 | 31449 ft | 487 kts | 141° |
| 2026-05-06 20:02 | 26.50834 | -82.05248 | 30855 ft | 486 kts | 140° |
| 2026-05-06 20:03 | 26.48329 | -82.02721 | 30262 ft | 485 kts | 140° |
| 2026-05-06 20:03 | 26.46670 | -82.01050 | 29815 ft | 484 kts | 140° |
| 2026-05-06 20:03 | 26.43371 | -81.97727 | 28884 ft | 479 kts | 140° |
| 2026-05-06 20:03 | 26.40909 | -81.95245 | 28248 ft | 474 kts | 140° |
| 2026-05-06 20:04 | 26.38463 | -81.92786 | 27642 ft | 469 kts | 140° |
| 2026-05-06 20:04 | 26.36859 | -81.91175 | 27234 ft | 466 kts | 139° |
| 2026-05-06 20:04 | 26.34455 | -81.88756 | 26625 ft | 462 kts | 139° |
| 2026-05-06 20:04 | 26.32073 | -81.86367 | 26024 ft | 459 kts | 139° |
| 2026-05-06 20:05 | 26.29710 | -81.83996 | 25449 ft | 455 kts | 139° |
| 2026-05-06 20:05 | 26.27370 | -81.81648 | 24879 ft | 451 kts | 139° |
| 2026-05-06 20:05 | 26.25045 | -81.79308 | 24278 ft | 449 kts | 137° |
| 2026-05-06 20:05 | 26.23001 | -81.76690 | 23686 ft | 447 kts | 122° |
| 2026-05-06 20:06 | 26.21593 | -81.73631 | 23040 ft | 442 kts | 113° |
| 2026-05-06 20:06 | 26.20353 | -81.70530 | 22514 ft | 435 kts | 112° |
| 2026-05-06 20:06 | 26.19114 | -81.67509 | 21973 ft | 430 kts | 113° |
| 2026-05-06 20:06 | 26.17846 | -81.64513 | 21426 ft | 426 kts | 114° |
| 2026-05-06 20:07 | 26.16573 | -81.61564 | 20888 ft | 421 kts | 114° |
| 2026-05-06 20:07 | 26.15305 | -81.58650 | 20377 ft | 416 kts | 114° |
| 2026-05-06 20:07 | 26.14047 | -81.55765 | 19892 ft | 410 kts | 114° |
| 2026-05-06 20:07 | 26.12808 | -81.52924 | 19414 ft | 405 kts | 114° |
| 2026-05-06 20:08 | 26.11586 | -81.50116 | 18912 ft | 401 kts | 114° |
| 2026-05-06 20:08 | 26.10375 | -81.47338 | 18411 ft | 397 kts | 114° |
| 2026-05-06 20:08 | 26.09182 | -81.44604 | 17706 ft | 390 kts | 114° |
| 2026-05-06 20:08 | 26.08010 | -81.41925 | 17076 ft | 379 kts | 114° |
| 2026-05-06 20:09 | 26.06874 | -81.39335 | 16603 ft | 366 kts | 114° |
| 2026-05-06 20:09 | 26.05782 | -81.36842 | 16196 ft | 352 kts | 113° |
| 2026-05-06 20:09 | 26.04728 | -81.34416 | 15809 ft | 344 kts | 113° |
| 2026-05-06 20:09 | 26.03707 | -81.32074 | 15433 ft | 336 kts | 113° |
| 2026-05-06 20:10 | 26.02694 | -81.29761 | 15059 ft | 328 kts | 112° |
| 2026-05-06 20:10 | 26.01703 | -81.27493 | 14718 ft | 326 kts | 112° |
| 2026-05-06 20:10 | 26.00719 | -81.25232 | 14331 ft | 323 kts | 112° |
| 2026-05-06 20:10 | 25.99737 | -81.22974 | 13942 ft | 322 kts | 112° |
| 2026-05-06 20:11 | 25.98767 | -81.20750 | 13520 ft | 322 kts | 112° |
| 2026-05-06 20:11 | 25.97785 | -81.18501 | 13102 ft | 324 kts | 112° |
| 2026-05-06 20:11 | 25.96802 | -81.16250 | 12730 ft | 324 kts | 112° |
| 2026-05-06 20:11 | 25.95814 | -81.13988 | 12366 ft | 325 kts | 113° |
| 2026-05-06 20:12 | 25.94824 | -81.11728 | 11988 ft | 325 kts | 113° |
| 2026-05-06 20:12 | 25.93830 | -81.09458 | 11605 ft | 327 kts | 113° |
| 2026-05-06 20:12 | 25.92845 | -81.07211 | 11236 ft | 328 kts | 114° |
| 2026-05-06 20:12 | 25.91842 | -81.04926 | 10853 ft | 328 kts | 114° |
| 2026-05-06 20:13 | 25.90897 | -81.02648 | 10612 ft | 319 kts | 111° |
| 2026-05-06 20:13 | 25.90039 | -81.00418 | 10451 ft | 308 kts | 111° |
| 2026-05-06 20:13 | 25.89212 | -80.98255 | 10060 ft | 302 kts | 111° |
| 2026-05-06 20:13 | 25.88398 | -80.96123 | 9515 ft | 297 kts | 111° |
| 2026-05-06 20:14 | 25.87598 | -80.94034 | 9111 ft | 290 kts | 111° |
| 2026-05-06 20:14 | 25.86827 | -80.92026 | 8812 ft | 282 kts | 111° |
| 2026-05-06 20:14 | 25.86061 | -80.90039 | 8604 ft | 277 kts | 111° |
| 2026-05-06 20:14 | 25.85308 | -80.88079 | 8363 ft | 275 kts | 111° |
| 2026-05-06 20:15 | 25.84560 | -80.86129 | 8121 ft | 273 kts | 111° |
| 2026-05-06 20:15 | 25.83816 | -80.84192 | 7849 ft | 273 kts | 111° |
| 2026-05-06 20:15 | 25.83068 | -80.82245 | 7491 ft | 275 kts | 112° |
| 2026-05-06 20:15 | 25.82310 | -80.80278 | 7116 ft | 278 kts | 112° |
| 2026-05-06 20:16 | 25.81558 | -80.78323 | 6898 ft | 271 kts | 112° |
| 2026-05-06 20:16 | 25.80829 | -80.76430 | 6763 ft | 261 kts | 112° |
| 2026-05-06 20:16 | 25.80129 | -80.74614 | 6650 ft | 250 kts | 112° |
| 2026-05-06 20:16 | 25.79459 | -80.72877 | 6546 ft | 239 kts | 113° |
| 2026-05-06 20:17 | 25.78815 | -80.71205 | 6346 ft | 233 kts | 112° |
| 2026-05-06 20:17 | 25.78376 | -80.69492 | 6031 ft | 231 kts | 95° |
| 2026-05-06 20:17 | 25.78378 | -80.67718 | 5711 ft | 230 kts | 87° |
| 2026-05-06 20:17 | 25.78469 | -80.65944 | 5401 ft | 230 kts | 87° |
| 2026-05-06 20:18 | 25.78559 | -80.64199 | 5108 ft | 229 kts | 87° |
| 2026-05-06 20:18 | 25.78663 | -80.62433 | 4997 ft | 230 kts | 85° |
| 2026-05-06 20:18 | 25.78804 | -80.60664 | 4854 ft | 230 kts | 86° |
| 2026-05-06 20:18 | 25.78890 | -80.58903 | 4556 ft | 228 kts | 87° |
| 2026-05-06 20:19 | 25.78965 | -80.57149 | 4251 ft | 227 kts | 88° |
| 2026-05-06 20:19 | 25.79038 | -80.55395 | 4021 ft | 227 kts | 88° |
| 2026-05-06 20:19 | 25.79110 | -80.53639 | 3883 ft | 226 kts | 88° |
| 2026-05-06 20:19 | 25.79181 | -80.51896 | 3670 ft | 225 kts | 88° |
| 2026-05-06 20:20 | 25.79252 | -80.50174 | 3410 ft | 221 kts | 88° |
| 2026-05-06 20:20 | 25.79321 | -80.48488 | 3138 ft | 217 kts | 88° |
| 2026-05-06 20:20 | 25.79388 | -80.46853 | 2862 ft | 212 kts | 88° |
| 2026-05-06 20:20 | 25.79455 | -80.45230 | 2607 ft | 208 kts | 88° |
| 2026-05-06 20:21 | 25.79520 | -80.43641 | 2344 ft | 204 kts | 88° |
| 2026-05-06 20:21 | 25.79585 | -80.42078 | 2090 ft | 201 kts | 88° |
| 2026-05-06 20:21 | 25.79648 | -80.40544 | 1834 ft | 197 kts | 88° |
| 2026-05-06 20:21 | 25.79712 | -80.39030 | 1576 ft | 193 kts | 88° |
| 2026-05-06 20:22 | 25.79771 | -80.37601 | 1388 ft | 179 kts | 89° |
| 2026-05-06 20:22 | 25.79826 | -80.36255 | 1139 ft | 173 kts | 88° |
| 2026-05-06 20:22 | 25.79880 | -80.34966 | 931 ft | 156 kts | 89° |
| 2026-05-06 20:22 | 25.79925 | -80.33883 | 717 ft | 128 kts | 88° |
| 2026-05-06 20:23 | 25.79964 | -80.32920 | 515 ft | 124 kts | 89° |
| 2026-05-06 20:23 | 25.80006 | -80.31928 | 370 ft | 131 kts | 90° |
| 2026-05-06 20:23 | 25.80037 | -80.30949 | 223 ft | 124 kts | 90° |
| 2026-05-06 20:23 | 25.80077 | -80.29994 | 30 ft | 123 kts | 90° |
| 2026-05-06 20:24 | 25.80111 | -80.29130 | 26 ft | 88 kts | 87° |
| 2026-05-06 20:24 | 25.80131 | -80.28631 | 24 ft | 56 kts | 88° |
| 2026-05-06 20:24 | 25.80135 | -80.28317 | 20 ft | 28 kts | 96° |
| 2026-05-06 20:24 | 25.80050 | -80.28228 | 20 ft | 20 kts | 229° |
| 2026-05-06 20:25 | 25.80037 | -80.28355 | 21 ft | 17 kts | 265° |
| 2026-05-06 20:25 | 25.80030 | -80.28496 | 21 ft | 20 kts | 267° |
| 2026-05-06 20:25 | 25.80027 | -80.28658 | 26 ft | 21 kts | 269° |
| 2026-05-06 20:25 | 25.79999 | -80.28814 | 28 ft | 19 kts | 215° |
| 2026-05-06 20:26 | 25.79904 | -80.28818 | 27 ft | 14 kts | 177° |
| 2026-05-06 20:26 | 25.79799 | -80.28817 | 26 ft | 16 kts | 180° |
| 2026-05-06 20:26 | 25.79678 | -80.28810 | 26 ft | 18 kts | 161° |
| 2026-05-06 20:26 | 25.79645 | -80.28678 | 25 ft | 18 kts | 85° |
| 2026-05-06 20:27 | 25.79660 | -80.28540 | 24 ft | 15 kts | 70° |
| 2026-05-06 20:27 | 25.79669 | -80.28416 | 24 ft | 17 kts | 88° |
| 2026-05-06 20:27 | 25.79673 | -80.28309 | 24 ft | 13 kts | 89° |
| 2026-05-06 20:27 | 25.79684 | -80.28234 | 24 ft | 11 kts | 38° |
| 2026-05-06 20:28 | 25.79708 | -80.28218 | 22 ft | 2 kts | 27° |
| 2026-05-06 20:28 | 25.79718 | -80.28212 | 22 ft | 2 kts | 26° |
| 2026-05-06 20:28 | 25.79724 | -80.28208 | 22 ft | 0 kts | 26° |
| 2026-05-06 20:28 | 25.79726 | -80.28207 | 22 ft | 0 kts | 25° |